Time;durP1;ratioP1;P1;durP2;ratioP2;P2;SDS_P1;SDS_P2;PMS_P1;PMS_P2;Temp;Humidity;BMP_temperature;BMP_pressure;BME280_temperature;BME280_humidity;BME280_pressure;Samples;Min_cycle;Max_cycle;Signal;HPM_P1;HPM_P2
2022/06/24 00:01:24;;;;;;;;;;;24.30;46.60;;;;;;5003723;28;20407;-60
2022/06/24 00:03:50;;;;;;;;;;;24.30;46.80;;;;;;5003650;28;20028;-61
2022/06/24 00:06:15;;;;;;;;;;;24.40;47.40;;;;;;5001064;28;20709;-61
2022/06/24 00:08:51;;;;;;;;;;;24.30;47.50;;;;;;5002704;28;19920;-60
2022/06/24 00:11:16;;;;;;;;;;;24.30;47.30;;;;;;5001184;28;20095;-61
2022/06/24 00:13:43;;;;;;;;;;;24.40;48.10;;;;;;5002826;28;20428;-60
2022/06/24 00:16:09;;;;;;;;;;;24.40;48.10;;;;;;5002738;28;19917;-61
2022/06/24 00:18:34;;;;;;;;;;;24.40;48.40;;;;;;5002200;28;19928;-60
2022/06/24 00:21:00;;;;;;;;;;;24.50;48.90;;;;;;5001586;28;19914;-61
2022/06/24 00:23:25;;;;;;;;;;;24.50;48.60;;;;;;5000854;28;20374;-60
2022/06/24 00:25:51;;;;;;;;;;;24.50;48.60;;;;;;5001932;28;20130;-60
2022/06/24 00:28:16;;;;;;;;;;;24.50;48.70;;;;;;5002388;28;19924;-61
2022/06/24 00:30:49;;;;;;;;;;;24.50;48.90;;;;;;4999967;28;19925;-60
2022/06/24 00:33:15;;;;;;;;;;;24.50;48.90;;;;;;5002305;28;20302;-61
2022/06/24 00:35:44;;;;;;;;;;;24.50;49.30;;;;;;5002049;28;19928;-60
2022/06/24 00:38:28;;;;;;;;;;;24.50;49.30;;;;;;5007075;28;19917;-60
2022/06/24 00:40:55;;;;;;;;;;;24.50;49.50;;;;;;4999396;28;20326;-60
2022/06/24 00:43:31;;;;;;;;;;;24.50;49.60;;;;;;5001518;28;20289;-60
2022/06/24 00:46:04;;;;;;;;;;;24.50;49.60;;;;;;5001102;28;20358;-60
2022/06/24 00:48:30;;;;;;;;;;;24.50;49.60;;;;;;4999743;28;19914;-60
2022/06/24 00:50:55;;;;;;;;;;;24.50;49.60;;;;;;4999814;28;20382;-60
2022/06/24 00:53:21;;;;;;;;;;;24.50;49.90;;;;;;5000571;28;19918;-60
2022/06/24 00:55:46;;;;;;;;;;;24.50;49.80;;;;;;5001327;28;20341;-60
2022/06/24 00:58:12;;;;;;;;;;;24.50;50.00;;;;;;5019374;28;19913;-60
2022/06/24 01:00:40;;;;;;;;;;;24.50;49.80;;;;;;5019959;28;19913;-59
2022/06/24 01:03:05;;;;;;;;;;;24.50;50.00;;;;;;5020038;28;19913;-60
2022/06/24 01:05:31;;;;;;;;;;;24.50;50.00;;;;;;5020107;28;19920;-61
2022/06/24 01:07:58;;;;;;;;;;;24.50;49.90;;;;;;5018184;28;20015;-60
2022/06/24 01:10:23;;;;;;;;;;;24.50;49.90;;;;;;5020165;28;19921;-61
2022/06/24 01:12:48;;;;;;;;;;;24.50;50.00;;;;;;5019330;28;20172;-61
2022/06/24 01:15:14;;;;;;;;;;;24.50;49.90;;;;;;5020250;28;19913;-61
2022/06/24 01:17:39;;;;;;;;;;;24.50;50.00;;;;;;5020187;28;19956;-60
2022/06/24 01:20:07;;;;;;;;;;;24.50;50.00;;;;;;5019735;28;19913;-60
2022/06/24 01:22:32;;;;;;;;;;;24.50;50.10;;;;;;5019727;28;20413;-60
2022/06/24 01:24:58;;;;;;;;;;;24.50;50.00;;;;;;5018498;28;19913;-60
2022/06/24 01:27:23;;;;;;;;;;;24.50;50.00;;;;;;5020452;28;20340;-60
2022/06/24 01:29:49;;;;;;;;;;;24.50;50.00;;;;;;5019766;28;19914;-61
2022/06/24 01:32:14;;;;;;;;;;;24.40;50.00;;;;;;5019293;28;19971;-61
2022/06/24 01:34:40;;;;;;;;;;;24.40;50.10;;;;;;5020255;28;19956;-60
2022/06/24 01:37:05;;;;;;;;;;;24.40;50.10;;;;;;5019093;28;19924;-61
2022/06/24 01:39:31;;;;;;;;;;;24.50;50.20;;;;;;5019774;28;20458;-60
2022/06/24 01:41:56;;;;;;;;;;;24.50;50.20;;;;;;5020136;28;19913;-60
2022/06/24 01:44:22;;;;;;;;;;;24.40;50.10;;;;;;5019468;28;19924;-61
2022/06/24 01:46:47;;;;;;;;;;;24.40;50.20;;;;;;5019698;28;19923;-60
2022/06/24 01:49:13;;;;;;;;;;;24.40;50.20;;;;;;5019832;28;19913;-60
2022/06/24 01:51:39;;;;;;;;;;;24.40;50.40;;;;;;5019846;28;19909;-60
2022/06/24 01:54:04;;;;;;;;;;;24.40;50.30;;;;;;5018901;28;19983;-60
2022/06/24 01:56:30;;;;;;;;;;;24.40;50.30;;;;;;5020872;28;19946;-60
2022/06/24 01:58:55;;;;;;;;;;;24.40;50.40;;;;;;5021653;28;19952;-60
2022/06/24 02:01:21;;;;;;;;;;;24.40;50.30;;;;;;5020014;28;20302;-60
2022/06/24 02:03:46;;;;;;;;;;;24.40;50.30;;;;;;5020376;28;19960;-60
2022/06/24 02:06:12;;;;;;;;;;;24.40;50.30;;;;;;5021159;28;19996;-60
2022/06/24 02:08:38;;;;;;;;;;;24.40;50.40;;;;;;5019534;28;19920;-60
2022/06/24 02:13:47;;;;;;;;;;;24.40;50.30;;;;;;5005428;28;19928;-60
2022/06/24 02:16:13;;;;;;;;;;;24.40;50.30;;;;;;4999995;28;19914;-61
2022/06/24 02:18:38;;;;;;;;;;;24.40;50.30;;;;;;4998136;28;20001;-60
2022/06/24 02:21:04;;;;;;;;;;;24.40;50.50;;;;;;4997821;28;19964;-60
2022/06/24 02:23:30;;;;;;;;;;;24.40;50.40;;;;;;4998251;28;19913;-60
2022/06/24 02:25:55;;;;;;;;;;;24.40;50.50;;;;;;5000139;28;19945;-61
2022/06/24 02:28:21;;;;;;;;;;;24.40;50.50;;;;;;4999417;28;20393;-61
2022/06/24 02:30:46;;;;;;;;;;;24.40;50.50;;;;;;4999061;28;21379;-61
2022/06/24 02:33:12;;;;;;;;;;;24.40;50.30;;;;;;4999357;28;19921;-60
2022/06/24 02:35:38;;;;;;;;;;;24.40;50.50;;;;;;5000120;28;20297;-61
2022/06/24 02:38:03;;;;;;;;;;;24.40;50.50;;;;;;4998282;28;20344;-61
2022/06/24 02:43:14;;;;;;;;;;;24.40;50.60;;;;;;4999099;28;19920;-60
2022/06/24 02:45:40;;;;;;;;;;;24.40;50.50;;;;;;4997683;28;20604;-61
2022/06/24 02:48:06;;;;;;;;;;;24.40;50.40;;;;;;4998803;28;19913;-61
2022/06/24 02:50:31;;;;;;;;;;;24.40;50.40;;;;;;4998558;28;20491;-60
2022/06/24 02:52:56;;;;;;;;;;;24.40;50.40;;;;;;4999059;28;19945;-61
2022/06/24 02:55:22;;;;;;;;;;;24.40;50.40;;;;;;4998806;28;19917;-61
2022/06/24 02:57:47;;;;;;;;;;;24.40;50.30;;;;;;4999149;28;19921;-61
2022/06/24 03:00:13;;;;;;;;;;;24.40;50.30;;;;;;4998839;28;19936;-61
2022/06/24 03:02:38;;;;;;;;;;;24.30;50.00;;;;;;4998897;28;19921;-61
2022/06/24 03:05:04;;;;;;;;;;;24.30;49.90;;;;;;4999005;28;19913;-61
2022/06/24 03:07:29;;;;;;;;;;;24.30;49.60;;;;;;5000221;28;20000;-61
2022/06/24 03:09:55;;;;;;;;;;;24.30;49.60;;;;;;5003153;28;20438;-61
2022/06/24 03:12:20;;;;;;;;;;;24.30;49.40;;;;;;4998721;28;19913;-61
2022/06/24 03:14:46;;;;;;;;;;;24.30;49.30;;;;;;4999240;28;19917;-61
2022/06/24 03:17:11;;;;;;;;;;;24.20;49.10;;;;;;4998861;28;19964;-61
2022/06/24 03:19:36;;;;;;;;;;;24.20;49.20;;;;;;4998581;28;20504;-62
2022/06/24 03:22:02;;;;;;;;;;;24.20;49.00;;;;;;4999122;28;19913;-61
2022/06/24 03:24:27;;;;;;;;;;;24.20;49.00;;;;;;4998922;28;19917;-61
2022/06/24 03:26:53;;;;;;;;;;;24.20;48.90;;;;;;4998996;28;19925;-61
2022/06/24 03:29:18;;;;;;;;;;;24.20;48.90;;;;;;4998379;28;19956;-61
2022/06/24 03:31:44;;;;;;;;;;;24.20;48.80;;;;;;4998775;28;19920;-60
2022/06/24 03:34:09;;;;;;;;;;;24.20;48.90;;;;;;5016013;28;19917;-59
2022/06/24 03:36:35;;;;;;;;;;;24.20;48.90;;;;;;5021030;28;20538;-61
2022/06/24 03:39:00;;;;;;;;;;;24.20;48.80;;;;;;5017733;28;19944;-61
2022/06/24 03:41:26;;;;;;;;;;;24.20;48.60;;;;;;5002373;28;19914;-61
2022/06/24 03:43:51;;;;;;;;;;;24.20;48.50;;;;;;5002448;28;19920;-61
2022/06/24 03:46:16;;;;;;;;;;;24.20;48.50;;;;;;5002347;28;19931;-61
2022/06/24 03:48:42;;;;;;;;;;;24.20;48.50;;;;;;5001844;28;20271;-61
2022/06/24 03:51:07;;;;;;;;;;;24.20;48.50;;;;;;5001822;28;19913;-61
2022/06/24 03:53:33;;;;;;;;;;;24.20;48.30;;;;;;5001469;28;19925;-61
2022/06/24 03:55:58;;;;;;;;;;;24.20;47.90;;;;;;5001705;28;19913;-59
2022/06/24 03:58:24;;;;;;;;;;;24.10;47.60;;;;;;5002014;28;20341;-60
2022/06/24 04:00:49;;;;;;;;;;;24.10;47.50;;;;;;5001639;28;19918;-61
2022/06/24 04:03:15;;;;;;;;;;;24.10;47.50;;;;;;5001197;28;19964;-61
2022/06/24 04:05:40;;;;;;;;;;;24.10;48.10;;;;;;5002079;28;20374;-60
2022/06/24 04:08:05;;;;;;;;;;;24.10;48.40;;;;;;5002223;28;19917;-60
2022/06/24 04:10:31;;;;;;;;;;;24.10;48.30;;;;;;5017903;28;19924;-60
2022/06/24 04:12:56;;;;;;;;;;;24.10;48.30;;;;;;5024814;28;19920;-61
2022/06/24 04:15:22;;;;;;;;;;;24.10;48.10;;;;;;5010891;28;19967;-59
2022/06/24 04:17:48;;;;;;;;;;;24.00;48.50;;;;;;5001962;28;19914;-61
2022/06/24 04:20:13;;;;;;;;;;;24.00;48.60;;;;;;5001846;28;20489;-61
2022/06/24 04:22:39;;;;;;;;;;;24.00;48.60;;;;;;5000645;28;19914;-61
2022/06/24 04:25:05;;;;;;;;;;;23.90;48.30;;;;;;5010320;28;19920;-60
2022/06/24 04:27:30;;;;;;;;;;;23.80;48.40;;;;;;5021316;28;22982;-61
2022/06/24 04:29:59;;;;;;;;;;;23.90;48.30;;;;;;5021882;28;19967;-61
2022/06/24 04:32:25;;;;;;;;;;;23.90;48.30;;;;;;5021176;28;21416;-61
2022/06/24 04:34:50;;;;;;;;;;;23.90;48.00;;;;;;5022549;28;20293;-60
2022/06/24 04:37:16;;;;;;;;;;;23.90;48.90;;;;;;5022099;28;19914;-60
2022/06/24 04:39:43;;;;;;;;;;;24.00;50.50;;;;;;5021958;28;19920;-60
2022/06/24 04:42:08;;;;;;;;;;;24.00;50.10;;;;;;5021072;28;19956;-60
2022/06/24 04:44:34;;;;;;;;;;;24.10;50.30;;;;;;5021607;28;19956;-60
2022/06/24 04:47:00;;;;;;;;;;;24.10;50.10;;;;;;5018761;28;20301;-60
2022/06/24 04:49:25;;;;;;;;;;;24.10;50.10;;;;;;5022559;28;20301;-60
2022/06/24 04:51:51;;;;;;;;;;;24.10;49.90;;;;;;5020581;28;19914;-60
2022/06/24 04:54:16;;;;;;;;;;;24.10;50.10;;;;;;5020288;28;19929;-60
2022/06/24 04:56:42;;;;;;;;;;;24.10;49.90;;;;;;5019868;28;19924;-60
2022/06/24 04:59:07;;;;;;;;;;;24.20;49.80;;;;;;5020530;28;19913;-61
2022/06/24 05:01:32;;;;;;;;;;;24.20;49.50;;;;;;5020622;28;20543;-61
2022/06/24 05:04:01;;;;;;;;;;;24.20;49.40;;;;;;5022003;28;19917;-60
2022/06/24 05:06:26;;;;;;;;;;;24.20;49.30;;;;;;5022333;28;19917;-61
2022/06/24 05:08:52;;;;;;;;;;;24.20;49.00;;;;;;5020379;28;19913;-60
2022/06/24 05:11:17;;;;;;;;;;;24.20;49.10;;;;;;5019816;28;19917;-61
2022/06/24 05:13:43;;;;;;;;;;;24.20;49.10;;;;;;5020601;28;19921;-60
2022/06/24 05:16:08;;;;;;;;;;;24.20;48.80;;;;;;5020199;28;20392;-60
2022/06/24 05:18:34;;;;;;;;;;;24.20;49.00;;;;;;5020953;28;19948;-60
2022/06/24 05:20:59;;;;;;;;;;;24.20;48.10;;;;;;5018901;28;19913;-60
2022/06/24 05:23:25;;;;;;;;;;;24.10;48.80;;;;;;5018650;28;19913;-60
2022/06/24 05:25:50;;;;;;;;;;;24.00;49.10;;;;;;5020218;28;19943;-60
2022/06/24 05:28:15;;;;;;;;;;;24.00;48.90;;;;;;5020153;28;20373;-60
2022/06/24 05:30:41;;;;;;;;;;;23.90;48.90;;;;;;5019930;28;19924;-60
2022/06/24 05:33:06;;;;;;;;;;;24.00;49.00;;;;;;5019854;28;19919;-60
2022/06/24 05:35:32;;;;;;;;;;;23.90;48.90;;;;;;5019759;28;19913;-60
2022/06/24 05:37:57;;;;;;;;;;;23.90;49.90;;;;;;5020044;28;20616;-60
2022/06/24 05:40:23;;;;;;;;;;;23.90;49.30;;;;;;5020578;28;19927;-60
2022/06/24 05:42:48;;;;;;;;;;;23.90;49.40;;;;;;5020912;28;19959;-60
2022/06/24 05:45:14;;;;;;;;;;;23.90;49.50;;;;;;5022305;28;19913;-60
2022/06/24 05:47:39;;;;;;;;;;;24.00;49.40;;;;;;5021831;28;19916;-57
2022/06/24 05:50:05;;;;;;;;;;;24.10;49.30;;;;;;5021804;28;19975;-61
2022/06/24 05:55:14;;;;;;;;;;;24.20;49.20;;;;;;5025424;28;19998;-62
2022/06/24 05:57:39;;;;;;;;;;;24.20;49.50;;;;;;5028775;28;19917;-57
2022/06/24 06:00:06;;;;;;;;;;;24.20;50.00;;;;;;5032679;28;20382;-64
2022/06/24 06:02:31;;;;;;;;;;;24.20;49.60;;;;;;5027630;28;19913;-62
2022/06/24 06:04:57;;;;;;;;;;;24.10;49.70;;;;;;5021481;28;20178;-61
2022/06/24 06:07:23;;;;;;;;;;;24.10;49.80;;;;;;5019625;28;19924;-59
2022/06/24 06:09:48;;;;;;;;;;;24.20;49.80;;;;;;5019577;28;19913;-61
2022/06/24 06:12:14;;;;;;;;;;;24.20;50.00;;;;;;5019381;28;20602;-59
2022/06/24 06:14:40;;;;;;;;;;;24.10;49.40;;;;;;5019966;28;19920;-57
2022/06/24 06:17:06;;;;;;;;;;;24.00;49.40;;;;;;5020179;28;19913;-59
2022/06/24 06:19:33;;;;;;;;;;;24.00;49.50;;;;;;5019813;28;19966;-59
2022/06/24 06:22:00;;;;;;;;;;;24.00;49.80;;;;;;5018841;28;19917;-61
2022/06/24 06:24:25;;;;;;;;;;;24.00;49.60;;;;;;5019076;28;19956;-59
2022/06/24 06:26:50;;;;;;;;;;;24.00;49.90;;;;;;5019831;28;19922;-60
2022/06/24 06:29:16;;;;;;;;;;;24.00;49.90;;;;;;5018264;28;19917;-61
2022/06/24 06:31:42;;;;;;;;;;;24.00;50.20;;;;;;5018964;28;20487;-59
2022/06/24 06:34:07;;;;;;;;;;;24.00;49.90;;;;;;5019676;28;20110;-62
2022/06/24 06:36:32;;;;;;;;;;;24.10;49.90;;;;;;5019274;28;19914;-62
2022/06/24 06:38:58;;;;;;;;;;;24.10;49.80;;;;;;5019119;28;19921;-61
2022/06/24 06:41:23;;;;;;;;;;;24.00;49.70;;;;;;5019355;28;19913;-61
2022/06/24 06:43:49;;;;;;;;;;;24.10;49.80;;;;;;5019518;28;20417;-59
2022/06/24 06:46:14;;;;;;;;;;;24.10;49.80;;;;;;5019189;28;19940;-61
2022/06/24 06:48:40;;;;;;;;;;;24.10;49.80;;;;;;5017583;28;20395;-61
2022/06/24 06:51:05;;;;;;;;;;;24.10;49.80;;;;;;5019472;28;19913;-63
2022/06/24 06:53:31;;;;;;;;;;;24.10;49.80;;;;;;5041731;22;20014;-56
2022/06/24 06:55:56;;;;;;;;;;;24.10;49.80;;;;;;5041139;28;19936;-58
2022/06/24 06:58:22;;;;;;;;;;;24.10;49.80;;;;;;5039361;28;19913;-59
2022/06/24 07:00:47;;;;;;;;;;;24.20;49.80;;;;;;5041157;28;19917;-60
2022/06/24 07:03:13;;;;;;;;;;;24.10;49.80;;;;;;5040984;28;19944;-60
2022/06/24 07:05:38;;;;;;;;;;;24.10;49.80;;;;;;5052304;22;20497;-57
2022/06/24 07:08:04;;;;;;;;;;;24.10;49.80;;;;;;5047620;28;19961;-60
2022/06/24 07:10:30;;;;;;;;;;;24.10;49.70;;;;;;5043410;28;19917;-59
2022/06/24 07:12:55;;;;;;;;;;;24.10;49.80;;;;;;5033843;28;20414;-59
2022/06/24 07:15:21;;;;;;;;;;;24.20;49.80;;;;;;5039353;28;20444;-58
2022/06/24 07:17:46;;;;;;;;;;;24.10;49.80;;;;;;5038718;28;19917;-59
2022/06/24 07:20:12;;;;;;;;;;;24.10;49.80;;;;;;5025508;28;19914;-57
2022/06/24 07:22:38;;;;;;;;;;;24.20;49.80;;;;;;5019051;28;20082;-56
2022/06/24 07:25:04;;;;;;;;;;;24.10;49.80;;;;;;5005284;28;19913;-59
2022/06/24 07:27:29;;;;;;;;;;;24.10;49.80;;;;;;5006404;28;19918;-59
2022/06/24 07:29:55;;;;;;;;;;;24.10;49.80;;;;;;5023646;28;20413;-59
2022/06/24 07:32:21;;;;;;;;;;;24.10;49.80;;;;;;5023982;28;19958;-60
2022/06/24 07:34:46;;;;;;;;;;;24.10;49.80;;;;;;5004582;28;19971;-59
2022/06/24 07:37:12;;;;;;;;;;;24.10;49.80;;;;;;5005780;28;19913;-59
2022/06/24 07:39:38;;;;;;;;;;;24.10;49.80;;;;;;5022507;28;19914;-57
2022/06/24 07:42:04;;;;;;;;;;;24.10;49.80;;;;;;5022484;28;19996;-55
2022/06/24 07:44:29;;;;;;;;;;;24.10;49.90;;;;;;5008043;28;20160;-60
2022/06/24 07:46:55;;;;;;;;;;;24.10;49.80;;;;;;5004209;28;19918;-59
2022/06/24 07:49:20;;;;;;;;;;;24.10;49.80;;;;;;5018808;28;20606;-58
2022/06/24 07:51:46;;;;;;;;;;;24.10;49.80;;;;;;5023795;28;19917;-59
2022/06/24 07:54:11;;;;;;;;;;;24.10;49.80;;;;;;5012301;28;19920;-55
2022/06/24 07:59:21;;;;;;;;;;;24.20;49.90;;;;;;5015686;28;19921;-58
2022/06/24 08:01:46;;;;;;;;;;;24.10;49.80;;;;;;5004982;28;19917;-57
2022/06/24 08:04:12;;;;;;;;;;;24.10;49.90;;;;;;5010257;28;20383;-56
2022/06/24 08:06:37;;;;;;;;;;;24.10;49.80;;;;;;5004004;28;19922;-59
2022/06/24 08:09:03;;;;;;;;;;;24.10;49.90;;;;;;5012721;28;20338;-56
2022/06/24 08:11:29;;;;;;;;;;;24.20;50.00;;;;;;5021874;28;19913;-55
2022/06/24 08:13:54;;;;;;;;;;;24.10;49.90;;;;;;5016401;28;20395;-58
2022/06/24 08:16:19;;;;;;;;;;;24.10;49.90;;;;;;5002566;28;19914;-58
2022/06/24 08:18:45;;;;;;;;;;;24.20;50.00;;;;;;5007656;28;19913;-57
2022/06/24 08:21:10;;;;;;;;;;;24.10;49.90;;;;;;5023604;28;19976;-57
2022/06/24 08:23:36;;;;;;;;;;;24.20;50.00;;;;;;5019495;28;19920;-59
2022/06/24 08:26:01;;;;;;;;;;;24.10;49.90;;;;;;5003784;28;19922;-58
2022/06/24 08:28:27;;;;;;;;;;;24.10;49.90;;;;;;5003514;28;19917;-59
2022/06/24 08:30:52;;;;;;;;;;;24.20;50.00;;;;;;5022973;28;20276;-59
2022/06/24 08:33:18;;;;;;;;;;;24.20;50.00;;;;;;5023849;28;19963;-57
2022/06/24 08:35:43;;;;;;;;;;;24.20;50.00;;;;;;5002563;28;19921;-63
2022/06/24 08:38:08;;;;;;;;;;;24.20;50.00;;;;;;5004177;28;19914;-57
2022/06/24 08:40:34;;;;;;;;;;;24.10;50.00;;;;;;5020807;28;19913;-59
2022/06/24 08:43:00;;;;;;;;;;;24.20;50.00;;;;;;5021754;28;20359;-56
2022/06/24 08:45:26;;;;;;;;;;;24.20;50.00;;;;;;5013207;28;19913;-58
2022/06/24 08:47:51;;;;;;;;;;;24.20;50.00;;;;;;5023638;28;20449;-58
2022/06/24 08:50:17;;;;;;;;;;;24.20;50.00;;;;;;5009638;28;19917;-58
2022/06/24 08:52:46;;;;;;;;;;;24.20;50.00;;;;;;5004155;28;20013;-59
2022/06/24 08:55:11;;;;;;;;;;;24.20;50.00;;;;;;5016327;28;20617;-59
2022/06/24 08:57:37;;;;;;;;;;;24.20;50.00;;;;;;5022548;28;19913;-59
2022/06/24 09:00:02;;;;;;;;;;;24.10;50.00;;;;;;5011453;28;20537;-58
2022/06/24 09:02:28;;;;;;;;;;;24.20;50.00;;;;;;5003120;28;19924;-55
2022/06/24 09:04:53;;;;;;;;;;;24.20;50.00;;;;;;5011157;28;19917;-60
2022/06/24 09:07:25;;;;;;;;;;;24.20;50.00;;;;;;5020506;28;19927;-64
2022/06/24 09:10:00;;;;;;;;;;;24.20;50.00;;;;;;5013222;28;19921;-58
2022/06/24 09:12:29;;;;;;;;;;;24.20;50.00;;;;;;5003229;28;19920;-58
2022/06/24 09:14:54;;;;;;;;;;;24.20;49.10;;;;;;5010790;28;20393;-58
2022/06/24 09:17:29;;;;;;;;;;;24.30;50.10;;;;;;5021699;28;19920;-58
2022/06/24 09:20:02;;;;;;;;;;;24.30;49.90;;;;;;5015964;28;19922;-55
2022/06/24 09:22:28;;;;;;;;;;;24.30;49.30;;;;;;5002700;28;19959;-58
2022/06/24 09:24:53;;;;;;;;;;;24.40;49.00;;;;;;5008868;28;19913;-56
2022/06/24 09:27:20;;;;;;;;;;;24.40;48.60;;;;;;5021718;28;19995;-58
2022/06/24 09:29:46;;;;;;;;;;;24.40;48.80;;;;;;5018336;28;20579;-56
2022/06/24 09:32:11;;;;;;;;;;;24.40;48.70;;;;;;5002205;28;19921;-56
2022/06/24 09:34:37;;;;;;;;;;;24.40;48.80;;;;;;5004435;28;19913;-57
2022/06/24 09:37:02;;;;;;;;;;;24.40;48.80;;;;;;5022503;28;19913;-59
2022/06/24 09:39:28;;;;;;;;;;;24.40;49.00;;;;;;5021629;28;20353;-60
2022/06/24 09:41:54;;;;;;;;;;;24.40;49.00;;;;;;5001145;28;19921;-57
2022/06/24 09:44:19;;;;;;;;;;;24.40;49.30;;;;;;5002606;28;19922;-58
2022/06/24 09:46:45;;;;;;;;;;;24.40;49.30;;;;;;5019306;28;19917;-59
2022/06/24 09:49:11;;;;;;;;;;;24.40;49.20;;;;;;5021369;28;19913;-58
2022/06/24 09:51:39;;;;;;;;;;;24.40;49.50;;;;;;5003569;28;19913;-57
2022/06/24 09:54:05;;;;;;;;;;;24.40;49.50;;;;;;5001045;28;19926;-59
2022/06/24 09:56:30;;;;;;;;;;;24.40;49.60;;;;;;5017575;28;19913;-60
2022/06/24 10:01:40;;;;;;;;;;;24.40;49.90;;;;;;5004586;28;20302;-58
2022/06/24 10:04:06;;;;;;;;;;;24.40;49.90;;;;;;5002501;28;19914;-59
2022/06/24 10:06:31;;;;;;;;;;;24.40;50.00;;;;;;5014836;28;19921;-60
2022/06/24 10:08:57;;;;;;;;;;;24.40;50.20;;;;;;5020432;28;19913;-58
2022/06/24 10:11:22;;;;;;;;;;;24.40;50.10;;;;;;5009605;28;19924;-60
2022/06/24 10:13:48;;;;;;;;;;;24.40;50.20;;;;;;5002748;28;19918;-60
2022/06/24 10:16:14;;;;;;;;;;;24.40;50.30;;;;;;5003846;28;19913;-59
2022/06/24 10:18:40;;;;;;;;;;;24.40;50.40;;;;;;5020434;28;19972;-55
2022/06/24 10:21:06;;;;;;;;;;;24.40;50.30;;;;;;5010925;28;20023;-57
2022/06/24 10:23:40;;;;;;;;;;;24.50;50.60;;;;;;5001714;28;20482;-57
2022/06/24 10:26:10;;;;;;;;;;;24.50;50.60;;;;;;5009279;28;19966;-57
2022/06/24 10:28:54;;;;;;;;;;;24.50;51.90;;;;;;5021119;28;19920;-57
2022/06/24 10:31:19;;;;;;;;;;;24.60;52.20;;;;;;5008744;28;19983;-60
2022/06/24 10:33:45;;;;;;;;;;;24.50;52.50;;;;;;5000504;28;20387;-56
2022/06/24 10:36:10;;;;;;;;;;;24.60;52.30;;;;;;5008037;28;19913;-58
2022/06/24 10:38:39;;;;;;;;;;;24.60;52.30;;;;;;5020324;28;19921;-59
2022/06/24 10:41:05;;;;;;;;;;;24.60;52.40;;;;;;5015719;28;19913;-58
2022/06/24 10:43:34;;;;;;;;;;;24.60;52.40;;;;;;4999184;28;19925;-58
2022/06/24 10:46:11;;;;;;;;;;;24.60;52.20;;;;;;5003317;28;19936;-58
2022/06/24 10:48:43;;;;;;;;;;;24.60;52.30;;;;;;5020510;28;20142;-54
2022/06/24 10:51:15;;;;;;;;;;;24.60;52.50;;;;;;5015166;28;19924;-59
2022/06/24 10:53:59;;;;;;;;;;;24.60;52.20;;;;;;4999253;28;19914;-60
2022/06/24 10:56:38;;;;;;;;;;;24.60;52.30;;;;;;4996525;28;19914;-60
2022/06/24 10:59:03;;;;;;;;;;;24.60;52.20;;;;;;5020487;28;19913;-58
2022/06/24 11:01:29;;;;;;;;;;;24.60;52.10;;;;;;5012897;28;19919;-55
2022/06/24 11:03:54;;;;;;;;;;;24.60;52.20;;;;;;4999824;28;19968;-60
2022/06/24 11:06:20;;;;;;;;;;;24.60;52.10;;;;;;5003013;28;19949;-61
2022/06/24 11:08:45;;;;;;;;;;;24.60;52.20;;;;;;5021246;28;19921;-56
2022/06/24 11:11:24;;;;;;;;;;;24.60;52.10;;;;;;5017775;28;19952;-60
2022/06/24 11:13:50;;;;;;;;;;;24.60;52.10;;;;;;4991850;28;19914;-60
2022/06/24 11:16:15;;;;;;;;;;;24.50;52.30;;;;;;4993874;28;20463;-55
2022/06/24 11:18:42;;;;;;;;;;;24.60;52.00;;;;;;5020774;28;19914;-60
2022/06/24 11:21:08;;;;;;;;;;;24.60;52.00;;;;;;5018781;28;20290;-59
2022/06/24 11:23:34;;;;;;;;;;;24.60;52.10;;;;;;4999939;28;19952;-58
2022/06/24 11:26:00;;;;;;;;;;;24.60;52.00;;;;;;4999841;28;19987;-59
2022/06/24 11:28:35;;;;;;;;;;;24.60;52.10;;;;;;5017843;28;19917;-59
2022/06/24 11:31:16;;;;;;;;;;;24.60;52.10;;;;;;5018909;28;19967;-59
2022/06/24 11:33:42;;;;;;;;;;;24.50;51.90;;;;;;5001096;28;19914;-56
2022/06/24 11:36:08;;;;;;;;;;;24.60;52.00;;;;;;5000769;28;20314;-59
2022/06/24 11:38:36;;;;;;;;;;;24.60;51.90;;;;;;5018693;28;20024;-59
2022/06/24 11:41:02;;;;;;;;;;;24.60;51.90;;;;;;5002563;28;19917;-58
2022/06/24 11:43:27;;;;;;;;;;;24.60;51.80;;;;;;5002996;28;19999;-59
2022/06/24 11:45:57;;;;;;;;;;;24.60;51.80;;;;;;4999577;28;19976;-57
2022/06/24 11:48:23;;;;;;;;;;;24.60;51.70;;;;;;5013563;28;20376;-59
2022/06/24 11:50:49;;;;;;;;;;;24.60;51.80;;;;;;5018770;28;19996;-60
2022/06/24 11:53:15;;;;;;;;;;;24.60;51.70;;;;;;5007045;28;19956;-59
2022/06/24 11:55:41;;;;;;;;;;;24.60;51.80;;;;;;5002341;28;19917;-60
2022/06/24 11:58:08;;;;;;;;;;;24.50;51.60;;;;;;5014328;28;20059;-59
2022/06/24 12:00:39;;;;;;;;;;;24.60;51.70;;;;;;5022500;28;19924;-57
2022/06/24 12:03:06;;;;;;;;;;;24.60;51.70;;;;;;5013192;28;20406;-58
2022/06/24 12:05:35;;;;;;;;;;;24.60;51.80;;;;;;5004159;28;19922;-59
2022/06/24 12:08:00;;;;;;;;;;;24.60;51.60;;;;;;5013491;28;20330;-57
2022/06/24 12:10:26;;;;;;;;;;;24.60;51.60;;;;;;5022386;28;20008;-61
2022/06/24 12:12:55;;;;;;;;;;;24.60;51.70;;;;;;5015622;28;19920;-58
2022/06/24 12:15:23;;;;;;;;;;;24.60;51.60;;;;;;5004112;28;19940;-60
2022/06/24 12:17:52;;;;;;;;;;;24.60;51.70;;;;;;5009088;28;20341;-60
2022/06/24 12:20:22;;;;;;;;;;;24.60;51.70;;;;;;5022140;28;20003;-59
2022/06/24 12:23:07;;;;;;;;;;;24.60;51.80;;;;;;5017764;28;20060;-60
2022/06/24 12:25:38;;;;;;;;;;;24.60;52.10;;;;;;5003617;28;20575;-57
2022/06/24 12:28:10;;;;;;;;;;;24.60;52.50;;;;;;5010425;28;19917;-59
2022/06/24 12:30:36;;;;;;;;;;;24.60;52.80;;;;;;5023815;28;20379;-55
2022/06/24 12:33:01;;;;;;;;;;;24.60;52.90;;;;;;4999299;28;19921;-59
2022/06/24 12:35:33;;;;;;;;;;;24.60;53.10;;;;;;5003337;28;20651;-60
2022/06/24 12:37:58;;;;;;;;;;;24.60;53.10;;;;;;5008628;28;20014;-58
2022/06/24 12:40:24;;;;;;;;;;;24.60;53.20;;;;;;5024666;28;19917;-56
2022/06/24 12:43:05;;;;;;;;;;;24.60;53.50;;;;;;5040006;28;19917;-58
2022/06/24 12:45:34;;;;;;;;;;;24.60;53.50;;;;;;5022783;28;19948;-60
2022/06/24 12:50:55;;;;;;;;;;;24.60;53.40;;;;;;4981406;28;19917;-57
2022/06/24 12:53:20;;;;;;;;;;;24.60;53.70;;;;;;5009289;28;19917;-59
2022/06/24 12:55:45;;;;;;;;;;;24.60;53.60;;;;;;5023002;28;19963;-55
2022/06/24 12:58:11;;;;;;;;;;;24.70;53.80;;;;;;5018869;28;19921;-55
2022/06/24 13:00:36;;;;;;;;;;;24.60;53.80;;;;;;5002623;28;19913;-57
2022/06/24 13:03:02;;;;;;;;;;;24.70;54.20;;;;;;5004163;28;20326;-57
2022/06/24 13:05:28;;;;;;;;;;;24.60;54.40;;;;;;5018153;28;20693;-59
2022/06/24 13:07:54;;;;;;;;;;;24.70;53.90;;;;;;5033411;28;19927;-59
2022/06/24 13:10:19;;;;;;;;;;;24.70;54.00;;;;;;5042658;28;19948;-58
2022/06/24 13:12:45;;;;;;;;;;;24.70;54.30;;;;;;5042721;28;19959;-56
2022/06/24 13:15:10;;;;;;;;;;;24.70;54.70;;;;;;5024298;28;19940;-59
2022/06/24 13:17:37;;;;;;;;;;;24.70;54.60;;;;;;5021951;28;19917;-57
2022/06/24 13:20:04;;;;;;;;;;;24.70;54.70;;;;;;5005345;28;19920;-59
2022/06/24 13:22:29;;;;;;;;;;;24.70;54.50;;;;;;5001426;28;19913;-59
2022/06/24 13:24:55;;;;;;;;;;;24.70;54.90;;;;;;5017517;28;20397;-60
2022/06/24 13:27:20;;;;;;;;;;;24.70;54.80;;;;;;5021745;28;19921;-59
2022/06/24 13:29:48;;;;;;;;;;;24.70;54.70;;;;;;5008970;28;25643;-60
2022/06/24 13:32:13;;;;;;;;;;;24.70;54.70;;;;;;5002721;28;19917;-58
2022/06/24 13:34:39;;;;;;;;;;;24.70;54.90;;;;;;5020546;28;19928;-56
2022/06/24 13:37:04;;;;;;;;;;;24.70;55.00;;;;;;5025691;28;19913;-59
2022/06/24 13:39:29;;;;;;;;;;;24.70;55.00;;;;;;5015795;28;20358;-60
2022/06/24 13:41:55;;;;;;;;;;;24.70;55.00;;;;;;5001981;28;19914;-58
2022/06/24 13:44:20;;;;;;;;;;;24.70;55.00;;;;;;5010430;28;19913;-57
2022/06/24 13:46:46;;;;;;;;;;;24.70;54.90;;;;;;5021195;28;19932;-59
2022/06/24 13:49:11;;;;;;;;;;;24.70;55.00;;;;;;5017289;28;20276;-58
2022/06/24 13:51:37;;;;;;;;;;;24.70;55.10;;;;;;5001215;28;19965;-57
2022/06/24 13:54:02;;;;;;;;;;;24.70;55.10;;;;;;5005639;28;20396;-59
2022/06/24 13:56:28;;;;;;;;;;;24.80;55.10;;;;;;5020595;28;19913;-60
2022/06/24 13:58:53;;;;;;;;;;;24.70;55.20;;;;;;5019383;28;19913;-55
2022/06/24 14:01:19;;;;;;;;;;;24.70;55.30;;;;;;5001990;28;20339;-59
2022/06/24 14:03:44;;;;;;;;;;;24.70;55.30;;;;;;5002140;28;19913;-58
2022/06/24 14:06:10;;;;;;;;;;;24.70;55.20;;;;;;5019653;28;19921;-59
2022/06/24 14:08:35;;;;;;;;;;;24.70;55.50;;;;;;5020177;28;19913;-57
2022/06/24 14:11:01;;;;;;;;;;;24.70;55.50;;;;;;5004072;28;19992;-57
2022/06/24 14:13:26;;;;;;;;;;;24.70;55.50;;;;;;5002170;28;19913;-57
2022/06/24 14:15:52;;;;;;;;;;;24.80;55.50;;;;;;5017022;28;19913;-61
2022/06/24 14:18:17;;;;;;;;;;;24.70;55.60;;;;;;5021803;28;20636;-58
2022/06/24 14:20:43;;;;;;;;;;;24.70;55.60;;;;;;5007679;28;19951;-59
2022/06/24 14:25:53;;;;;;;;;;;24.80;55.80;;;;;;5014322;28;19924;-59
2022/06/24 14:28:18;;;;;;;;;;;24.80;55.70;;;;;;5021672;28;19917;-59
2022/06/24 14:30:43;;;;;;;;;;;24.80;55.80;;;;;;5008741;28;19920;-59